Time;durP1;ratioP1;P1;durP2;ratioP2;P2;SDS_P1;SDS_P2;PMS_P1;PMS_P2;Temp;Humidity;BMP_temperature;BMP_pressure;BME280_temperature;BME280_humidity;BME280_pressure;Samples;Min_cycle;Max_cycle;Signal;HPM_P1;HPM_P2
2023/07/31 00:00:21;;;;;;;3.03;2.80;;;23.30;89.20;;;23.86;60.35;94640.31;5076896;28;21034;-62
2023/07/31 00:02:48;;;;;;;2.57;2.40;;;23.30;88.70;;;23.85;60.23;94642.22;5076400;28;20545;-57
2023/07/31 00:05:17;;;;;;;3.30;3.10;;;23.20;88.70;;;23.83;59.84;94638.06;5078150;28;20553;-62
2023/07/31 00:07:44;;;;;;;2.70;2.53;;;23.20;89.10;;;23.80;60.02;94644.72;5074608;28;20504;-62
2023/07/31 00:10:12;;;;;;;3.60;3.30;;;23.20;89.50;;;23.78;59.97;94633.38;5077634;28;20470;-58
2023/07/31 00:12:39;;;;;;;3.33;3.03;;;23.20;89.50;;;23.78;60.71;94633.38;5077568;28;20829;-62
2023/07/31 00:15:08;;;;;;;2.83;2.73;;;23.20;89.50;;;23.79;60.88;94637.72;5076546;28;20450;-62
2023/07/31 00:17:35;;;;;;;10.47;2.83;;;23.20;89.60;;;23.78;60.28;94639.59;5080439;28;20804;-58
2023/07/31 00:20:02;;;;;;;3.10;2.90;;;23.20;89.90;;;23.79;60.83;94632.34;5075830;28;20477;-62
2023/07/31 00:22:31;;;;;;;2.77;2.67;;;23.20;89.60;;;23.80;60.79;94634.81;5075580;28;20466;-58
2023/07/31 00:24:59;;;;;;;3.67;3.07;;;23.20;90.10;;;23.82;61.10;94621.13;5074719;28;20451;-65
2023/07/31 00:27:26;;;;;;;4.93;3.70;;;23.20;90.30;;;23.80;61.08;94624.06;5074165;28;20490;-62
2023/07/31 00:29:54;;;;;;;3.47;3.17;;;23.20;90.90;;;23.77;61.89;94608.41;5070203;28;20833;-62
2023/07/31 00:32:21;;;;;;;3.30;3.00;;;23.20;91.10;;;23.75;61.45;94601.59;5069464;28;20470;-63
2023/07/31 00:34:48;;;;;;;3.17;2.97;;;23.10;91.20;;;23.72;61.83;94607.44;5076803;28;21017;-62
2023/07/31 00:37:15;;;;;;;3.37;3.13;;;23.10;91.10;;;23.69;62.07;94603.34;5076304;28;20557;-62
2023/07/31 00:39:44;;;;;;;3.77;3.47;;;23.10;91.40;;;23.67;62.26;94600.09;5070051;28;21039;-57
2023/07/31 00:42:11;;;;;;;4.20;4.00;;;23.10;91.60;;;23.62;61.95;94606.16;5071297;28;20474;-62
2023/07/31 00:44:39;;;;;;;4.60;4.03;;;23.10;91.80;;;23.59;62.53;94601.22;5077982;28;20442;-62
2023/07/31 00:47:06;;;;;;;5.67;5.10;;;23.00;91.90;;;23.57;62.07;94597.94;5074948;28;20491;-57
2023/07/31 00:49:34;;;;;;;5.50;5.03;;;23.00;92.00;;;23.56;62.58;94595.47;5074940;28;20446;-61
2023/07/31 00:52:02;;;;;;;6.40;5.90;;;23.00;92.20;;;23.54;62.79;94597.56;5072892;28;21227;-58
2023/07/31 00:54:29;;;;;;;7.33;6.27;;;22.90;92.40;;;23.52;63.04;94595.13;5077891;28;20487;-62
2023/07/31 00:56:58;;;;;;;7.40;6.77;;;22.90;92.40;;;23.50;63.41;94593.69;5072882;28;20474;-62
2023/07/31 00:59:25;;;;;;;9.27;8.47;;;22.90;92.80;;;23.46;62.83;94590.66;5074042;28;20603;-59
2023/07/31 01:01:52;;;;;;;8.27;7.43;;;22.90;93.00;;;23.43;62.90;94597.28;5068413;28;20471;-59
2023/07/31 01:04:19;;;;;;;8.43;7.70;;;22.90;93.40;;;23.41;63.61;94590.53;5072864;28;20460;-58
2023/07/31 01:06:52;;;;;;;7.43;6.90;;;22.80;93.40;;;23.39;63.87;94590.75;5067758;28;20539;-59
2023/07/31 01:09:27;;;;;;;7.90;7.10;;;22.80;93.60;;;23.40;63.66;94596.94;5070827;28;20438;-64
2023/07/31 01:11:57;;;;;;;9.00;8.20;;;22.80;93.50;;;23.41;63.75;94587.84;5072620;28;20470;-58
2023/07/31 01:14:26;;;;;;;9.90;9.07;;;22.80;93.60;;;23.41;63.39;94583.28;5072855;28;20446;-59
2023/07/31 01:16:54;;;;;;;10.23;9.43;;;22.80;94.10;;;23.40;63.30;94580.84;5073203;28;20474;-57
2023/07/31 01:19:24;;;;;;;11.23;10.13;;;22.80;93.80;;;23.39;63.38;94576.50;5077497;28;20499;-63
2023/07/31 01:22:21;;;;;;;10.97;9.40;;;22.80;94.00;;;23.38;64.62;94577.56;5072591;28;20829;-65
2023/07/31 01:24:56;;;;;;;11.90;10.60;;;22.80;94.20;;;23.36;63.63;94587.69;5070290;28;20529;-62
2023/07/31 01:27:28;;;;;;;14.23;11.70;;;22.80;94.20;;;23.32;63.62;94584.66;5073261;28;21008;-61
2023/07/31 01:30:00;;;;;;;11.80;10.63;;;22.70;94.40;;;23.30;64.04;94581.38;5073385;28;21062;-58
2023/07/31 01:32:27;;;;;;;13.30;12.07;;;22.70;94.50;;;23.26;63.51;94578.31;5071443;28;20462;-58
2023/07/31 01:34:55;;;;;;;12.70;11.27;;;22.70;94.60;;;23.23;64.02;94581.44;5071193;28;20450;-62
2023/07/31 01:37:22;;;;;;;13.87;12.50;;;22.60;94.80;;;23.19;64.41;94569.53;5074030;28;20462;-63
2023/07/31 01:39:49;;;;;;;20.97;11.90;;;22.60;94.90;;;23.15;64.10;94580.94;5073577;28;20446;-61
2023/07/31 01:42:16;;;;;;;14.00;12.73;;;22.60;95.10;;;23.12;64.16;94578.72;5070848;28;20458;-57
2023/07/31 01:44:45;;;;;;;13.27;12.07;;;22.60;95.10;;;23.08;65.14;94580.97;5068367;28;20443;-61
2023/07/31 01:47:12;;;;;;;21.73;14.07;;;22.50;95.30;;;23.05;65.30;94584.13;5072359;28;20498;-59
2023/07/31 01:49:39;;;;;;;18.10;14.60;;;22.50;95.50;;;23.01;64.84;94582.94;5075209;28;20899;-61
2023/07/31 01:52:08;;;;;;;14.30;12.90;;;22.50;95.80;;;22.98;65.27;94583.38;5066926;28;20532;-57
2023/07/31 01:54:36;;;;;;;16.30;14.70;;;22.40;96.00;;;22.96;65.22;94591.66;5074105;28;20459;-63
2023/07/31 01:57:04;;;;;;;16.70;14.77;;;22.40;96.20;;;22.92;65.14;94585.91;5069138;28;20477;-58
2023/07/31 01:59:31;;;;;;;15.80;14.23;;;22.40;96.30;;;22.91;65.83;94588.81;5072381;28;20465;-58
2023/07/31 02:02:00;;;;;;;17.77;14.97;;;22.30;96.40;;;22.90;65.43;94587.19;5069787;28;20479;-62
2023/07/31 02:04:27;;;;;;;16.00;14.40;;;22.30;96.60;;;22.88;66.09;94587.41;5071935;28;20457;-61
2023/07/31 02:06:54;;;;;;;17.97;16.20;;;22.30;96.70;;;22.88;66.56;94594.63;5071602;28;20482;-58
2023/07/31 02:09:22;;;;;;;19.70;15.87;;;22.30;97.20;;;22.89;65.76;94588.22;5071894;28;20750;-57
2023/07/31 02:11:49;;;;;;;16.90;15.20;;;22.30;97.10;;;22.91;65.97;94588.81;5072033;28;20486;-60
2023/07/31 02:14:16;;;;;;;17.27;15.10;;;22.30;97.30;;;22.95;65.99;94594.56;5071883;28;20457;-58
2023/07/31 02:16:44;;;;;;;17.47;15.67;;;22.40;97.40;;;22.98;66.13;94588.75;5068932;28;20979;-62
2023/07/31 02:19:12;;;;;;;17.53;15.83;;;22.40;97.60;;;23.00;66.59;94586.66;5068652;28;20486;-62
2023/07/31 02:21:39;;;;;;;18.17;16.27;;;22.40;98.10;;;23.01;66.62;94594.47;5069768;28;20817;-59
2023/07/31 02:24:07;;;;;;;19.43;17.33;;;22.40;97.80;;;23.03;65.95;94599.63;5070164;28;20462;-62
2023/07/31 02:26:34;;;;;;;19.93;17.80;;;22.50;97.80;;;23.02;66.92;94589.94;5070755;28;20546;-58
2023/07/31 02:29:01;;;;;;;18.43;16.50;;;22.40;97.80;;;23.01;67.09;94594.47;5069393;28;20487;-58
2023/07/31 02:31:28;;;;;;;18.07;15.33;;;22.40;98.00;;;22.99;66.67;94590.38;5069783;28;20475;-57
2023/07/31 02:33:55;;;;;;;17.43;15.73;;;22.40;98.00;;;22.98;66.95;94588.75;5069053;28;20458;-62
2023/07/31 02:36:25;;;;;;;18.20;16.17;;;22.40;98.20;;;22.98;66.48;94594.94;5073922;28;20488;-63
2023/07/31 02:38:52;;;;;;;19.70;16.10;;;22.40;98.30;;;22.98;67.04;94594.13;5071832;28;20536;-62
2023/07/31 02:41:20;;;;;;;18.53;15.47;;;22.40;98.40;;;22.98;66.75;94592.25;5073123;28;21014;-61
2023/07/31 02:43:47;;;;;;;19.10;16.73;;;22.40;98.50;;;22.99;66.39;94593.91;5070124;28;20471;-57
2023/07/31 02:46:14;;;;;;;19.87;17.77;;;22.40;98.30;;;23.02;66.47;94604.19;5075157;28;20925;-58
2023/07/31 02:48:41;;;;;;;22.97;17.93;;;22.50;98.50;;;23.05;66.72;94602.88;5070172;28;20482;-61
2023/07/31 02:51:09;;;;;;;19.40;17.50;;;22.50;98.60;;;23.05;66.99;94605.56;5068597;28;20556;-58
2023/07/31 02:53:37;;;;;;;19.93;17.80;;;22.50;98.70;;;23.07;66.52;94611.56;5070148;28;20499;-62
2023/07/31 02:56:05;;;;;;;18.03;16.20;;;22.50;98.60;;;23.09;66.89;94612.97;5068946;28;20481;-62
2023/07/31 02:58:32;;;;;;;21.50;17.17;;;22.50;98.60;;;23.11;66.41;94610.06;5071116;28;20515;-57
2023/07/31 03:01:00;;;;;;;19.20;17.20;;;22.50;98.50;;;23.12;66.15;94609.03;5072096;28;20849;-63
2023/07/31 03:03:27;;;;;;;18.40;16.60;;;22.50;98.60;;;23.14;67.17;94619.53;5066720;28;20839;-57
2023/07/31 03:05:54;;;;;;;21.50;19.20;;;22.60;98.70;;;23.14;66.71;94625.72;5067205;28;20545;-57
2023/07/31 03:08:21;;;;;;;19.20;17.37;;;22.60;98.80;;;23.15;67.20;94623.88;5073947;28;20487;-56
2023/07/31 03:10:50;;;;;;;24.30;18.00;;;22.60;98.80;;;23.15;66.64;94626.56;5073656;28;20561;-57
2023/07/31 03:13:17;;;;;;;20.33;18.33;;;22.60;98.90;;;23.14;67.19;94623.03;5071673;28;20609;-62
2023/07/31 03:15:44;;;;;;;20.33;18.10;;;22.60;99.00;;;23.13;67.15;94616.06;5071464;28;21021;-63
2023/07/31 03:18:12;;;;;;;22.53;17.53;;;22.60;99.30;;;23.12;66.54;94625.13;5070033;28;20584;-58
2023/07/31 03:20:43;;;;;;;20.43;17.90;;;22.60;99.10;;;23.13;66.51;94628.63;5067441;28;20872;-57
2023/07/31 03:23:10;;;;;;;20.37;16.43;;;22.60;99.10;;;23.12;67.16;94622.44;5070721;28;20438;-61
2023/07/31 03:25:37;;;;;;;20.90;17.63;;;22.60;99.30;;;23.12;67.50;94622.44;5071211;28;20463;-57
2023/07/31 03:28:06;;;;;;;18.73;16.73;;;22.60;99.30;;;23.13;67.20;94634.00;5075677;28;20577;-61
2023/07/31 03:30:33;;;;;;;19.73;17.70;;;22.60;99.10;;;23.13;67.30;94628.63;5072147;28;20958;-62
2023/07/31 03:33:00;;;;;;;21.30;19.10;;;22.60;99.10;;;23.12;66.97;94630.50;5076420;28;20461;-63
2023/07/31 03:35:28;;;;;;;22.60;18.67;;;22.60;99.20;;;23.10;66.65;94637.97;5076900;28;21164;-63
2023/07/31 03:37:55;;;;;;;20.50;17.07;;;22.60;99.10;;;23.11;66.98;94636.09;5071706;28;20457;-58
2023/07/31 03:40:22;;;;;;;19.63;17.50;;;22.50;99.00;;;23.11;66.31;94642.28;5069133;28;21103;-58
2023/07/31 03:42:49;;;;;;;24.07;18.90;;;22.50;99.00;;;23.12;66.49;94643.91;5074202;28;20457;-62
2023/07/31 03:45:18;;;;;;;24.50;19.87;;;22.60;99.20;;;23.12;66.85;94649.28;5073219;28;20466;-63
2023/07/31 03:47:45;;;;;;;22.03;19.63;;;22.60;99.20;;;23.10;66.91;94640.66;5074808;28;20521;-58
2023/07/31 03:50:13;;;;;;;20.70;18.17;;;22.60;99.20;;;23.10;67.08;94646.00;5074122;28;20470;-65
2023/07/31 03:52:40;;;;;;;21.20;18.97;;;22.50;99.10;;;23.09;66.98;94647.03;5083939;28;20840;-59
2023/07/31 03:55:07;;;;;;;24.73;20.57;;;22.50;99.20;;;23.09;66.49;94653.22;5072688;28;20454;-58
2023/07/31 03:57:35;;;;;;;24.27;19.97;;;22.50;99.30;;;23.09;67.22;94658.59;5075871;28;20520;-58
2023/07/31 04:00:02;;;;;;;27.63;20.37;;;22.50;99.30;;;23.09;66.82;94655.91;5075257;28;20438;-62
2023/07/31 04:02:30;;;;;;;22.53;20.13;;;22.50;99.30;;;23.08;66.28;94658.78;5076321;28;20460;-59
2023/07/31 04:04:58;;;;;;;23.63;20.50;;;22.50;99.30;;;23.09;66.87;94665.81;5070171;28;20503;-64
2023/07/31 04:07:25;;;;;;;23.40;20.13;;;22.50;99.40;;;23.10;67.00;94670.16;5072994;28;20450;-62
2023/07/31 04:09:52;;;;;;;23.97;21.47;;;22.50;99.50;;;23.10;66.54;94664.78;5069152;28;20485;-59
2023/07/31 04:12:20;;;;;;;30.17;22.53;;;22.60;99.50;;;23.11;67.01;94669.09;5075415;28;20877;-63
2023/07/31 04:14:47;;;;;;;24.57;21.07;;;22.50;99.40;;;23.13;66.48;94660.81;5076037;28;20986;-64
2023/07/31 04:17:14;;;;;;;26.43;21.40;;;22.60;99.50;;;23.11;66.98;94663.72;5071375;28;20878;-58
2023/07/31 04:19:43;;;;;;;22.50;20.10;;;22.60;99.40;;;23.12;66.86;94665.38;5069729;28;20462;-58
2023/07/31 04:22:10;;;;;;;21.23;18.93;;;22.60;99.40;;;23.13;66.26;94660.81;5065994;28;20475;-59
2023/07/31 04:24:37;;;;;;;25.03;20.87;;;22.60;99.50;;;23.13;66.37;94672.41;5070190;28;20583;-58
2023/07/31 04:27:05;;;;;;;24.50;20.00;;;22.60;99.50;;;23.14;67.00;94676.69;5070942;28;20463;-63
2023/07/31 04:29:32;;;;;;;26.07;20.40;;;22.60;99.60;;;23.18;66.50;94677.09;5076493;28;20504;-63
2023/07/31 04:31:59;;;;;;;24.30;21.43;;;22.60;99.50;;;23.20;66.13;94675.81;5068522;28;21231;-59
2023/07/31 04:34:27;;;;;;;27.60;21.87;;;22.60;99.50;;;23.23;66.83;94671.88;5072294;28;20455;-61
2023/07/31 04:36:55;;;;;;;23.97;20.30;;;22.60;99.50;;;23.29;66.70;94675.53;5075112;28;20478;-59
2023/07/31 04:39:22;;;;;;;25.37;20.30;;;22.70;99.40;;;23.36;66.20;94670.88;5071936;28;20577;-64
2023/07/31 04:41:50;;;;;;;25.37;20.30;;;22.80;99.40;;;23.44;65.98;94667.94;5069703;28;20547;-58
2023/07/31 04:44:17;;;;;;;26.07;19.83;;;22.80;99.30;;;23.54;65.41;94676.25;5075058;28;20512;-62
2023/07/31 04:46:44;;;;;;;35.80;19.67;;;22.90;99.20;;;23.62;65.44;94669.75;5071983;28;20478;-63
2023/07/31 04:49:12;;;;;;;25.17;20.20;;;23.00;99.30;;;23.70;65.79;94671.31;5070645;28;20486;-60
2023/07/31 04:51:39;;;;;;;21.30;19.10;;;23.10;99.10;;;23.77;65.84;94666.69;5071212;28;20473;-60
2023/07/31 04:54:08;;;;;;;20.43;18.10;;;23.20;99.00;;;23.82;64.36;94666.81;5070733;28;20455;-57
2023/07/31 04:56:35;;;;;;;21.20;18.73;;;23.20;98.50;;;23.87;64.62;94666.97;5076705;28;20493;-59
2023/07/31 04:59:02;;;;;;;19.03;17.23;;;23.30;98.70;;;23.90;64.32;94666.50;5076625;28;20884;-58
2023/07/31 05:01:30;;;;;;;20.27;18.17;;;23.30;98.50;;;23.95;64.88;94663.13;5077546;28;20482;-61
2023/07/31 05:03:57;;;;;;;19.97;17.83;;;23.30;98.30;;;23.99;64.24;94664.31;5079558;28;20962;-58
2023/07/31 05:06:24;;;;;;;20.47;17.60;;;23.40;98.20;;;24.05;64.11;94667.97;5070939;28;20478;-60
2023/07/31 05:08:51;;;;;;;17.93;16.13;;;23.50;98.30;;;24.12;63.73;94668.69;5079575;28;20530;-61
2023/07/31 05:11:20;;;;;;;19.27;17.10;;;23.50;98.10;;;24.20;63.98;94664.84;5077603;28;20478;-59
2023/07/31 05:13:47;;;;;;;18.00;16.30;;;23.60;98.10;;;24.26;63.51;94670.13;5074984;28;20499;-59
2023/07/31 05:16:14;;;;;;;19.73;15.63;;;23.60;97.90;;;24.27;63.84;94663.69;5077542;28;20463;-62
2023/07/31 05:18:42;;;;;;;15.87;14.27;;;23.70;97.70;;;24.24;63.48;94658.78;5076377;28;20450;-60
2023/07/31 05:21:09;;;;;;;17.90;14.10;;;23.70;97.70;;;24.25;63.62;94665.81;5075068;28;20470;-59
2023/07/31 05:23:36;;;;;;;18.60;15.37;;;23.70;97.60;;;24.27;63.61;94662.88;5071199;28;20466;-59
2023/07/31 05:26:06;;;;;;;16.20;14.50;;;23.70;97.50;;;24.30;62.83;94665.94;5076230;28;20482;-59
2023/07/31 05:28:35;;;;;;;14.20;12.83;;;23.70;97.50;;;24.39;63.48;94674.47;5074031;28;20517;-62
2023/07/31 05:31:03;;;;;;;15.73;12.80;;;23.80;97.40;;;24.52;62.76;94658.16;5073860;28;20467;-61
2023/07/31 05:33:30;;;;;;;14.07;12.70;;;23.90;97.20;;;24.65;62.51;94662.50;5073202;28;20466;-59
2023/07/31 05:35:58;;;;;;;15.30;11.90;;;24.00;97.00;;;24.79;61.96;94673.06;5073036;28;20558;-61
2023/07/31 05:38:25;;;;;;;11.90;10.40;;;24.10;96.50;;;24.90;61.19;94664.16;5080675;28;20450;-59
2023/07/31 05:40:52;;;;;;;10.60;9.50;;;24.20;95.90;;;25.06;60.55;94668.81;5071954;28;20528;-61
2023/07/31 05:43:19;;;;;;;13.60;8.87;;;24.40;95.80;;;25.25;59.89;94665.97;5080609;28;20495;-61
2023/07/31 05:45:48;;;;;;;17.23;8.93;;;24.50;95.20;;;25.43;59.56;94664.25;5072173;28;20521;-59
2023/07/31 05:48:15;;;;;;;10.70;9.80;;;24.70;94.70;;;25.56;58.93;94666.66;5075712;28;20618;-59
2023/07/31 05:50:43;;;;;;;14.00;9.70;;;24.90;94.30;;;25.71;58.35;94663.44;5073071;28;20470;-60
2023/07/31 05:53:11;;;;;;;11.30;9.47;;;25.00;93.80;;;25.87;57.75;94656.47;5068874;28;21107;-61
2023/07/31 05:55:38;;;;;;;11.07;9.30;;;25.20;93.30;;;26.03;57.44;94657.63;5072110;28;20475;-60
2023/07/31 05:58:05;;;;;;;10.70;8.97;;;25.30;92.80;;;26.22;56.41;94663.59;5071477;28;20794;-59
2023/07/31 06:00:32;;;;;;;9.27;8.37;;;25.50;92.40;;;26.41;56.30;94672.28;5070930;28;20462;-59
2023/07/31 06:03:01;;;;;;;8.67;7.83;;;25.70;92.20;;;26.60;55.82;94670.16;5070545;28;20456;-61
2023/07/31 06:05:29;;;;;;;8.30;7.40;;;25.90;91.20;;;26.79;55.40;94678.88;5074108;28;20470;-60
2023/07/31 06:07:57;;;;;;;5.77;5.37;;;26.00;90.60;;;26.98;54.68;94687.53;5069475;28;20455;-59
2023/07/31 06:10:24;;;;;;;8.17;6.00;;;26.20;90.20;;;27.12;53.77;94682.59;5072584;28;20504;-61
2023/07/31 06:12:51;;;;;;;9.83;6.33;;;26.40;87.80;;;27.26;53.45;94681.16;5071640;28;20450;-62
2023/07/31 06:15:19;;;;;;;6.10;5.40;;;26.50;87.20;;;27.35;53.02;94676.19;5072023;28;20484;-60
2023/07/31 06:17:46;;;;;;;6.57;5.80;;;26.60;86.40;;;27.38;52.72;94683.00;5072042;28;20462;-59
2023/07/31 06:20:15;;;;;;;5.80;5.40;;;26.70;85.50;;;27.40;53.09;94684.34;5069128;28;21076;-59
2023/07/31 06:22:42;;;;;;;5.73;5.20;;;26.70;85.30;;;27.41;52.83;94691.41;5073691;28;20530;-59
2023/07/31 06:25:10;;;;;;;6.23;5.60;;;26.70;84.90;;;27.39;51.94;94687.31;5070580;28;20474;-61
2023/07/31 06:27:37;;;;;;;5.57;5.10;;;26.70;83.20;;;27.30;52.42;94682.31;5074268;28;20458;-59
2023/07/31 06:30:05;;;;;;;5.80;5.40;;;26.70;83.50;;;27.23;52.79;94692.47;5068877;28;20497;-61
2023/07/31 06:32:33;;;;;;;5.27;4.77;;;26.70;83.70;;;27.17;52.44;94679.97;5072740;28;20486;-60
2023/07/31 06:35:00;;;;;;;10.03;4.53;;;26.60;83.40;;;27.21;52.19;94691.91;5074480;28;20469;-62
2023/07/31 06:37:28;;;;;;;5.80;5.40;;;26.60;83.00;;;27.33;52.36;94698.06;5067917;28;20474;-59
2023/07/31 06:39:56;;;;;;;7.17;5.47;;;26.70;83.30;;;27.39;51.48;94688.16;5074552;28;20449;-61
2023/07/31 06:42:23;;;;;;;6.13;4.50;;;26.70;81.90;;;27.42;51.52;94686.81;5068505;28;20993;-58
2023/07/31 06:44:50;;;;;;;6.80;4.80;;;26.80;81.90;;;27.47;51.11;94695.81;5075555;28;20981;-61
2023/07/31 06:47:17;;;;;;;8.13;5.37;;;26.80;80.70;;;27.60;51.13;94694.63;5079075;28;20449;-60
2023/07/31 06:49:45;;;;;;;4.77;4.37;;;26.90;80.10;;;27.73;50.39;94694.25;5072175;28;20493;-60
2023/07/31 06:52:12;;;;;;;8.67;4.17;;;27.00;80.20;;;27.89;50.52;94703.34;5070847;28;20470;-59
2023/07/31 06:54:40;;;;;;;4.50;3.77;;;27.20;79.70;;;28.08;49.80;94700.34;5071155;28;20449;-62
2023/07/31 06:57:08;;;;;;;4.77;4.47;;;27.40;78.60;;;28.34;48.93;94697.91;5065540;28;21005;-58
2023/07/31 06:59:35;;;;;;;6.67;4.20;;;27.60;77.00;;;28.56;48.66;94693.22;5069258;28;20445;-58
2023/07/31 07:02:02;;;;;;;4.53;4.10;;;27.80;77.30;;;28.80;48.93;94690.22;5070309;28;20489;-60
2023/07/31 07:04:29;;;;;;;8.20;5.17;;;28.00;76.60;;;29.00;48.16;94689.53;5076479;28;20453;-62
2023/07/31 07:06:57;;;;;;;6.33;4.10;;;28.20;75.30;;;29.22;48.13;94685.91;5072541;28;20474;-60
2023/07/31 07:09:24;;;;;;;4.37;3.67;;;28.40;74.70;;;29.42;46.84;94677.09;5077564;28;20539;-59
2023/07/31 07:11:52;;;;;;;3.70;3.33;;;28.60;73.90;;;29.59;46.48;94675.03;5071681;28;20481;-62
2023/07/31 07:14:20;;;;;;;4.03;3.73;;;28.80;73.40;;;29.78;46.60;94669.13;5079807;28;20976;-62
2023/07/31 07:16:50;;;;;;;4.33;3.93;;;28.90;72.90;;;29.81;46.72;94683.00;5070562;28;20466;-60
2023/07/31 07:19:17;;;;;;;4.27;3.97;;;29.00;72.10;;;29.69;45.97;94671.53;5070526;28;20438;-60
2023/07/31 07:21:44;;;;;;;6.53;3.83;;;29.00;71.50;;;29.57;45.85;94677.16;5070414;28;20555;-64
2023/07/31 07:24:11;;;;;;;7.50;4.20;;;28.90;69.90;;;29.49;46.51;94664.94;5073620;28;20203;-63
2023/07/31 07:26:39;;;;;;;4.07;3.40;;;28.90;70.90;;;29.52;46.02;94679.88;5075948;28;20220;-61
2023/07/31 07:29:07;;;;;;;4.40;4.10;;;28.90;71.20;;;29.56;45.95;94669.28;5072916;28;20486;-62
2023/07/31 07:31:36;;;;;;;12.00;5.30;;;28.90;70.60;;;29.60;45.78;94660.38;5076914;28;20897;-62
2023/07/31 07:34:03;;;;;;;3.70;3.40;;;28.90;70.90;;;29.62;46.06;94668.25;5071284;28;20446;-62
2023/07/31 07:36:32;;;;;;;3.67;3.43;;;28.90;70.30;;;29.68;45.45;94667.19;5075225;28;20257;-62
2023/07/31 07:38:59;;;;;;;6.20;4.20;;;29.00;70.30;;;29.84;45.86;94668.09;5073577;28;21038;-61
2023/07/31 07:41:26;;;;;;;3.53;3.23;;;29.10;69.70;;;30.06;44.68;94669.81;5074557;28;20304;-58
2023/07/31 07:43:54;;;;;;;3.20;3.00;;;29.20;68.60;;;30.30;44.66;94667.38;5075635;28;20208;-59
2023/07/31 07:46:23;;;;;;;6.93;3.27;;;29.50;68.80;;;30.53;44.22;94675.03;5076650;28;20228;-59
2023/07/31 07:48:50;;;;;;;12.60;3.70;;;29.70;69.00;;;30.75;43.57;94674.78;5080990;28;20204;-59
2023/07/31 07:51:17;;;;;;;9.03;4.40;;;29.90;67.40;;;30.87;42.71;94673.69;5071745;28;20219;-59
2023/07/31 07:53:44;;;;;;;3.67;3.37;;;30.10;65.60;;;31.02;43.86;94683.78;5073990;28;20227;-62
2023/07/31 07:56:12;;;;;;;12.90;4.43;;;30.30;66.80;;;31.22;43.22;94691.88;5070262;28;20227;-59
2023/07/31 07:58:39;;;;;;;4.37;3.97;;;30.40;66.30;;;31.45;42.63;94689.66;5070025;28;20274;-61
2023/07/31 08:01:06;;;;;;;7.30;4.17;;;30.60;65.50;;;31.67;42.38;94681.19;5077588;28;20223;-60
2023/07/31 08:03:35;;;;;;;5.00;4.10;;;30.80;64.90;;;31.84;41.24;94683.56;5070691;28;20196;-58
2023/07/31 08:06:02;;;;;;;7.17;4.30;;;31.00;62.80;;;31.95;41.49;94689.78;5079048;28;20216;-59
2023/07/31 08:08:29;;;;;;;3.83;3.53;;;31.10;63.20;;;32.09;40.35;94693.53;5071959;28;20200;-60
2023/07/31 08:10:57;;;;;;;3.83;3.50;;;31.30;61.60;;;32.23;40.00;94684.78;5080432;28;20285;-63
2023/07/31 08:13:24;;;;;;;2.65;2.45;;;31.40;60.20;;;32.37;40.25;94683.03;5070285;28;20200;-58
2023/07/31 08:15:51;;;;;;;4.03;3.10;;;31.60;61.20;;;32.57;40.51;94684.81;5080193;28;20292;-62
2023/07/31 08:18:18;;;;;;;6.18;3.92;;;31.80;61.10;;;32.73;39.80;94692.91;5079718;28;20275;-62
2023/07/31 08:20:47;;;;;;;4.82;3.72;;;31.90;60.30;;;32.85;39.18;94685.97;5075851;28;20308;-58
2023/07/31 08:23:15;;;;;;;6.00;3.50;;;32.10;59.80;;;33.03;39.59;94689.09;5075645;28;20633;-58
2023/07/31 08:25:42;;;;;;;3.35;3.05;;;32.30;59.30;;;33.17;37.84;94686.50;5075706;28;20675;-63
2023/07/31 08:28:09;;;;;;;4.43;4.13;;;32.30;58.00;;;33.33;38.24;94689.94;5079105;28;20669;-59
2023/07/31 08:30:37;;;;;;;8.25;3.42;;;32.50;57.30;;;33.48;37.49;94687.06;5074260;28;20337;-59
2023/07/31 08:33:04;;;;;;;3.50;3.30;;;32.70;56.70;;;33.61;36.94;94685.56;5078970;28;20213;-59
2023/07/31 08:35:31;;;;;;;6.35;2.63;;;32.80;55.90;;;33.76;37.84;94676.41;5071307;28;20235;-59
2023/07/31 08:38:00;;;;;;;3.08;2.72;;;32.90;56.70;;;34.00;36.89;94675.56;5079194;28;20589;-62
2023/07/31 08:40:28;;;;;;;5.68;3.28;;;33.10;56.80;;;34.25;35.79;94688.09;5071572;28;20231;-61
2023/07/31 08:43:01;;;;;;;3.80;3.50;;;33.40;55.20;;;34.43;36.33;94683.75;5078009;28;20275;-63
2023/07/31 08:45:29;;;;;;;4.40;3.53;;;33.60;55.90;;;34.58;35.73;94691.72;5072908;28;20216;-62
2023/07/31 08:47:57;;;;;;;3.65;3.38;;;33.80;55.50;;;34.56;35.04;94677.53;5076408;28;20212;-59
2023/07/31 08:50:24;;;;;;;5.47;2.97;;;33.80;54.30;;;34.57;36.69;94679.16;5076697;28;20254;-58
2023/07/31 08:52:52;;;;;;;5.90;2.35;;;33.80;55.00;;;34.69;36.18;94681.44;5075829;28;20621;-59
2023/07/31 08:55:23;;;;;;;11.93;2.72;;;33.90;54.70;;;34.90;35.40;94673.72;5073866;28;20285;-62
2023/07/31 08:57:52;;;;;;;3.47;3.17;;;34.00;54.60;;;35.16;34.70;94676.03;5073650;28;20937;-58
2023/07/31 09:00:20;;;;;;;7.03;3.10;;;34.30;53.50;;;35.15;35.40;94688.91;5072021;28;20216;-63
2023/07/31 09:02:52;;;;;;;3.63;3.33;;;34.30;53.50;;;34.97;34.38;94682.38;5070946;28;20640;-58
2023/07/31 09:05:19;;;;;;;5.03;3.55;;;34.30;52.60;;;34.91;34.56;94671.84;5071489;28;20248;-62
2023/07/31 09:07:48;;;;;;;4.15;3.65;;;34.20;52.20;;;34.92;35.06;94677.00;5074439;28;20541;-61
2023/07/31 09:10:15;;;;;;;4.03;3.67;;;34.20;53.20;;;35.09;34.41;94676.44;5071527;28;20228;-58
2023/07/31 09:12:44;;;;;;;4.68;3.85;;;34.30;53.40;;;35.07;34.55;94677.84;5074559;28;20340;-61
2023/07/31 09:15:12;;;;;;;3.28;3.08;;;34.30;52.80;;;34.99;35.12;94671.13;5070904;28;20232;-62
2023/07/31 09:17:39;;;;;;;3.83;2.33;;;34.20;52.90;;;34.89;34.85;94655.72;5075168;28;20278;-62
2023/07/31 09:20:17;;;;;;;4.50;2.78;;;34.20;51.80;;;34.64;34.21;94663.22;5069775;28;20254;-59
2023/07/31 09:22:44;;;;;;;4.47;3.85;;;34.00;52.10;;;34.53;34.88;94664.44;5074905;28;20203;-61
2023/07/31 09:25:18;;;;;;;3.28;3.08;;;33.80;53.00;;;34.65;35.32;94653.06;5070800;28;20633;-58
2023/07/31 09:27:51;;;;;;;2.53;2.42;;;33.90;53.30;;;34.87;35.34;94648.94;5074944;28;20202;-59
2023/07/31 09:30:19;;;;;;;4.65;3.05;;;34.00;53.10;;;35.06;34.91;94644.22;5074349;28;20239;-63
2023/07/31 09:32:47;;;;;;;2.97;1.80;;;34.20;52.90;;;35.24;34.99;94647.19;5069144;28;20285;-61
2023/07/31 09:35:21;;;;;;;4.07;2.97;;;34.40;52.50;;;35.46;33.51;94649.25;5075190;28;20220;-57
2023/07/31 09:37:52;;;;;;;3.40;2.28;;;34.60;51.90;;;35.72;33.72;94644.09;5071631;28;20273;-59
2023/07/31 09:40:33;;;;;;;6.75;2.80;;;34.80;51.60;;;35.98;32.61;94649.88;5074346;28;20697;-63
2023/07/31 09:43:02;;;;;;;5.03;2.78;;;35.10;50.60;;;36.11;32.68;94659.16;5070962;28;20200;-58
2023/07/31 09:45:30;;;;;;;2.90;2.60;;;35.30;50.50;;;36.13;32.69;94654.22;5070099;28;20277;-59
2023/07/31 09:47:57;;;;;;;7.70;3.30;;;35.30;50.00;;;36.06;32.43;94651.06;5073923;28;20208;-59
2023/07/31 09:50:25;;;;;;;4.88;2.55;;;35.30;49.90;;;36.01;32.81;94646.53;5070076;28;20232;-61
2023/07/31 09:52:53;;;;;;;2.45;2.03;;;35.30;49.90;;;35.88;32.49;94644.59;5074083;28;20204;-59
2023/07/31 09:55:20;;;;;;;4.20;2.22;;;35.10;49.30;;;35.63;33.07;94649.44;5071540;28;20224;-57
2023/07/31 09:57:49;;;;;;;1.92;1.83;;;34.90;49.50;;;35.46;32.82;94641.06;5074660;28;21179;-64
2023/07/31 10:00:21;;;;;;;4.80;2.60;;;34.80;50.00;;;35.53;32.75;94639.53;5071098;28;20234;-62
2023/07/31 10:02:48;;;;;;;6.05;2.45;;;34.80;50.20;;;35.65;32.90;94633.56;5073669;28;20628;-59
2023/07/31 10:05:16;;;;;;;3.80;2.67;;;34.80;49.80;;;35.76;32.29;94630.59;5067594;28;20238;-62
2023/07/31 10:07:50;;;;;;;2.33;2.22;;;34.90;49.60;;;35.71;32.22;94632.34;5071480;28;20517;-62
2023/07/31 10:10:17;;;;;;;2.13;2.03;;;34.90;49.40;;;35.59;32.56;94634.78;5073028;28;20240;-61
2023/07/31 10:12:44;;;;;;;3.35;2.20;;;34.90;49.50;;;35.63;32.20;94633.03;5070476;28;20200;-62
2023/07/31 10:15:12;;;;;;;8.48;2.65;;;34.80;49.50;;;35.71;32.07;94637.81;5073936;28;20220;-59